Latest Weather Observations for Robe Airport

IDS60801

Issued at 8:01 pm CST Monday 24 July 2017 (issued every 30 minutes, with the page automatically refreshed every 10 minutes)

About weather observations | Map of weather stations | Latest weather observations for SA | Other Formats
Station Details ID: 026105 Name: ROBE AIRFIELD Lat: -37.18 Lon: 139.81 Height: 3.0 m
Data from the previous 72 hours. | See also: Recent months at Robe Airport
Date/Time
CST
Temp
°C
App
Temp
°C
Dew
Point
°C
Rel
Hum
%
Delta-T
°C
Wind Press
QNH
hPa
Press
MSL
hPa
Rain since
9am
mm
Dir  Spd
km/h
Gust
km/h
Spd
kts
Gust
kts
24/08:00pm 10.7 - - - - N 11 13 6 7 1017.6 1017.6 1.8
24/07:30pm 11.6 - - - - NNW 15 20 8 11 1017.5 1017.5 1.8
24/07:00pm 12.3 - - - - NNW 17 24 9 13 1017.5 1017.5 1.8
24/06:30pm 12.1 - - - - N 11 17 6 9 1017.3 1017.3 1.8
24/06:00pm 12.7 - - - - NNW 15 20 8 11 1017.4 1017.4 1.8
24/05:30pm 12.7 - - - - NNW 15 20 8 11 1017.5 1017.5 1.8
24/05:00pm 12.6 - - - - NNW 17 24 9 13 1017.4 1017.4 1.8
24/04:30pm 13.6 - - - - NNW 22 30 12 16 1017.3 1017.3 1.8
24/04:00pm 13.7 - - - - NNW 24 32 13 17 1017.2 1017.2 1.8
24/03:30pm 13.2 - - - - NNW 22 28 12 15 1017.4 1017.4 1.8
24/03:00pm 13.9 - - - - NNW 24 33 13 18 1017.4 1017.4 1.8
24/02:30pm 14.4 - - - - NNW 24 33 13 18 1017.6 1017.6 1.8
24/02:00pm 15.0 - - - - NW 15 30 8 16 1017.6 1017.6 1.8
24/01:30pm 14.2 - - - - NW 13 17 7 9 1018.0 1018.0 1.8
24/01:00pm 13.2 - - - - NW 9 13 5 7 1018.3 1018.3 1.8
24/12:30pm 12.9 - - - - NW 13 20 7 11 1018.8 1018.8 1.8
24/12:00pm 13.7 - - - - NW 7 11 4 6 1019.0 1019.0 0.6
24/11:30am 14.8 - - - - NW 7 13 4 7 1019.3 1019.3 0.0
24/11:00am 16.0 - - - - WNW 7 11 4 6 1019.7 1019.7 0.0
24/10:30am 14.8 - - - - NW 7 11 4 6 1020.0 1020.0 0.0
24/10:00am 14.4 - - - - NW 4 7 2 4 1020.0 1020.0 0.0
24/09:30am 13.1 - - - - W 4 6 2 3 1019.9 1019.9 0.0
24/09:00am 12.6 - - - - WNW 2 4 1 2 1019.7 1019.7 1.4
24/08:30am 11.4 - - - - NW 13 26 7 14 1019.7 1019.7 1.4
24/08:00am 8.8 - - - - W 4 6 2 3 1019.5 1019.5 1.2
24/07:30am 10.4 - - - - W 6 9 3 5 1019.3 1019.3 1.2
24/07:00am 10.4 - - - - WNW 9 28 5 15 1019.1 1019.1 1.0
24/06:30am 9.4 - - - - WNW 6 7 3 4 1018.7 1018.7 1.0
24/06:00am 8.9 - - - - WNW 7 9 4 5 1018.5 1018.5 1.0
24/05:30am 5.8 - - - - CALM 0 0 0 0 1018.2 1018.2 1.0
24/05:00am 5.7 - - - - CALM 0 0 0 0 1017.8 1017.8 1.0
24/04:30am 6.6 - - - - CALM 0 0 0 0 1017.7 1017.7 1.0
24/04:00am 6.7 - - - - CALM 0 0 0 0 1017.7 1017.7 1.0
24/03:30am 10.1 - - - - WSW 4 6 2 3 1017.8 1017.8 1.0
24/03:00am 9.7 - - - - WSW 6 7 3 4 1018.0 1018.0 1.0
24/02:30am 10.8 - - - - WSW 7 9 4 5 1018.1 1018.1 1.0
24/02:00am 10.3 - - - - W 6 9 3 5 1018.1 1018.1 1.0
24/01:30am 10.2 - - - - W 7 9 4 5 1018.1 1018.1 1.0
24/01:00am 10.1 - - - - W 6 9 3 5 1018.0 1018.0 1.0
24/12:30am 9.9 - - - - W 6 7 3 4 1017.9 1017.9 1.0
24/12:00am 10.5 - - - - W 6 7 3 4 1018.0 1018.0 1.0
 
Date/Time
CST
Temp
°C
App
Temp
°C
Dew
Point
°C
Rel
Hum
%
Delta-T
°C
Wind Press
QNH
hPa
Press
MSL
hPa
Rain since
9am
mm
Dir  Spd
km/h
Gust
km/h
Spd
kts
Gust
kts
23/11:30pm 11.1 - - - - W 7 11 4 6 1018.0 1018.0 1.0
23/11:00pm 11.6 - - - - WSW 9 15 5 8 1018.0 1018.0 0.6
23/10:30pm 11.4 - - - - W 11 17 6 9 1018.0 1018.0 0.0
23/10:00pm 11.3 - - - - W 6 9 3 5 1017.9 1017.9 0.0
23/09:30pm 11.3 - - - - WSW 6 9 3 5 1017.7 1017.7 0.0
23/09:00pm 11.7 - - - - WSW 6 9 3 5 1017.5 1017.5 0.0
23/08:30pm 11.9 - - - - WSW 9 15 5 8 1017.2 1017.2 0.0
23/08:00pm 12.1 - - - - W 9 17 5 9 1017.2 1017.2 0.0
23/07:30pm 11.9 - - - - WSW 9 15 5 8 1016.9 1016.9 0.0
23/07:00pm 11.9 - - - - WSW 9 15 5 8 1016.5 1016.5 0.0
23/06:30pm 12.0 - - - - WSW 11 19 6 10 1016.2 1016.2 0.0
23/06:00pm 12.0 - - - - W 11 20 6 11 1015.9 1015.9 0.0
23/05:30pm 12.1 - - - - WSW 11 19 6 10 1015.7 1015.7 0.0
23/05:00pm 13.4 - - - - W 17 28 9 15 1015.5 1015.5 0.0
23/04:30pm 13.5 - - - - W 15 24 8 13 1015.3 1015.3 0.0
23/04:00pm 14.4 - - - - W 15 24 8 13 1015.0 1015.0 0.0
23/03:30pm 14.8 - - - - W 17 30 9 16 1014.8 1014.8 0.0
23/03:00pm 14.7 - - - - W 15 24 8 13 1014.6 1014.6 0.0
23/02:30pm 14.9 - - - - W 17 28 9 15 1014.4 1014.4 0.0
23/02:00pm 15.2 - - - - W 17 28 9 15 1014.1 1014.1 0.0
23/01:30pm 14.5 - - - - WSW 19 28 10 15 1014.1 1014.1 0.0
23/01:00pm 15.4 - - - - WSW 19 33 10 18 1014.1 1014.1 0.0
23/12:30pm 15.2 - - - - W 22 37 12 20 1014.3 1014.3 0.0
23/12:00pm 14.8 - - - - WSW 19 33 10 18 1014.4 1014.4 0.0
23/11:30am 15.2 - - - - WSW 19 32 10 17 1014.5 1014.5 0.0
23/11:00am 14.5 - - - - WSW 20 32 11 17 1014.4 1014.4 0.0
23/10:30am 14.9 - - - - WSW 17 30 9 16 1014.4 1014.4 0.0
23/10:00am 14.5 - - - - WSW 19 30 10 16 1014.1 1014.1 0.0
23/09:30am 13.8 - - - - WSW 19 30 10 16 1013.8 1013.8 0.0
23/09:00am 13.7 - - - - WSW 15 26 8 14 1013.4 1013.4 3.8
23/08:30am 13.1 - - - - W 15 22 8 12 1013.1 1013.1 3.8
23/08:00am 12.3 - - - - W 17 26 9 14 1012.9 1012.9 3.8
23/07:30am 12.6 - - - - WNW 15 24 8 13 1012.5 1012.5 3.4
23/07:00am 12.6 - - - - WNW 19 28 10 15 1012.3 1012.3 3.4
23/06:30am 12.5 - - - - WNW 13 22 7 12 1012.1 1012.1 3.4
23/06:00am 12.3 - - - - WNW 11 17 6 9 1011.9 1011.9 3.4
23/05:30am 12.0 - - - - WNW 20 30 11 16 1011.6 1011.6 3.4
23/05:00am 11.7 - - - - WNW 9 15 5 8 1011.8 1011.8 3.4
23/04:30am 12.4 - - - - W 24 39 13 21 1011.9 1011.9 3.4
23/04:00am 12.2 - - - - WNW 11 17 6 9 1011.6 1011.6 2.4
23/03:30am 13.4 - - - - W 20 35 11 19 1011.8 1011.8 2.4
23/03:00am 13.0 - - - - W 17 28 9 15 1011.7 1011.7 2.4
23/02:30am 12.9 - - - - W 13 20 7 11 1011.7 1011.7 2.4
23/02:00am 13.0 - - - - W 17 24 9 13 1011.8 1011.8 2.4
23/01:30am 13.2 - - - - W 20 32 11 17 1011.7 1011.7 2.4
23/01:00am 12.9 - - - - WNW 11 19 6 10 1011.5 1011.5 2.4
23/12:30am 13.0 - - - - WNW 13 20 7 11 1011.5 1011.5 2.4
23/12:00am 13.0 - - - - WNW 22 33 12 18 1011.4 1011.4 2.4
 
Date/Time
CST
Temp
°C
App
Temp
°C
Dew
Point
°C
Rel
Hum
%
Delta-T
°C
Wind Press
QNH
hPa
Press
MSL
hPa
Rain since
9am
mm
Dir  Spd
km/h
Gust
km/h
Spd
kts
Gust
kts
22/11:30pm 13.3 - - - - NW 19 28 10 15 1011.3 1011.3 0.6
22/11:00pm 13.6 - - - - NW 26 39 14 21 1011.4 1011.4 0.6
22/10:30pm 13.7 - - - - NW 24 37 13 20 1011.3 1011.3 0.0
22/10:00pm 13.2 - - - - NNW 24 37 13 20 1010.9 1010.9 0.0
22/09:30pm 13.3 - - - - NNW 24 32 13 17 1011.2 1011.2 0.0
22/09:00pm 12.7 - - - - NNW 22 28 12 15 1011.4 1011.4 0.0
22/08:30pm 12.6 - - - - NNW 22 32 12 17 1011.4 1011.4 0.0
22/08:00pm 12.6 - - - - NNW 22 33 12 18 1011.5 1011.5 0.0
22/07:30pm 12.7 - - - - NNW 24 33 13 18 1011.4 1011.4 0.0
22/07:00pm 12.8 - - - - NNW 24 32 13 17 1011.4 1011.4 0.0
22/06:30pm 12.5 - - - - NNW 22 32 12 17 1011.4 1011.4 0.0
22/06:00pm 12.2 - - - - NNW 20 28 11 15 1011.2 1011.2 0.0
22/05:30pm 12.4 - - - - NNW 22 32 12 17 1011.3 1011.3 0.0
22/05:00pm 12.8 - - - - NNW 22 30 12 16 1011.1 1011.1 0.0
22/04:30pm 13.3 - - - - NNW 20 26 11 14 1011.2 1011.2 0.0
22/04:00pm 14.1 - - - - NNW 24 32 13 17 1011.2 1011.2 0.0
22/03:30pm 14.4 - - - - NNW 22 30 12 16 1011.3 1011.3 0.0
22/03:00pm 14.7 - - - - NNW 22 32 12 17 1011.4 1011.4 0.0
22/02:30pm 15.0 - - - - NNW 26 33 14 18 1011.5 1011.5 0.0
22/02:00pm 15.0 10.2 10.4 74 2.4 NNW 26 35 14 19 1011.8 1011.8 0.0
22/01:30pm 15.4 11.0 10.4 72 2.6 NNW 24 37 13 20 1012.0 1012.0 0.0
22/01:00pm 15.1 9.9 10.3 73 2.5 NNW 28 39 15 21 1012.4 1012.4 0.0
22/12:30pm 15.3 10.1 10.3 72 2.6 NNW 28 37 15 20 1013.0 1013.0 0.0
22/12:00pm 15.4 9.8 10.0 70 2.8 NNW 30 39 16 21 1013.6 1013.6 0.0
22/11:30am 15.1 9.0 9.9 71 2.7 NNW 32 43 17 23 1013.9 1013.9 0.0
22/11:00am 15.4 9.3 9.7 69 3.0 NNW 32 43 17 23 1014.1 1014.1 0.0
22/10:30am 15.2 8.9 9.1 67 3.1 NNW 32 43 17 23 1014.4 1014.4 0.0
22/10:00am 15.0 9.6 9.4 69 2.9 NNW 28 35 15 19 1014.6 1014.6 0.0
22/09:30am 14.4 10.2 9.6 73 2.5 NNW 22 32 12 17 1014.7 1014.7 0.0
22/09:00am 13.0 9.6 9.1 77 2.0 N 17 24 9 13 1014.9 1014.9 0.0
22/08:30am 11.7 8.1 8.2 79 1.7 N 17 20 9 11 1014.8 1014.8 0.0
22/08:00am 10.2 6.7 7.1 81 1.5 N 15 20 8 11 1015.0 1015.0 0.0
22/07:30am 10.3 5.9 6.5 77 1.8 N 19 24 10 13 1014.9 1014.9 0.0
22/07:00am 10.7 6.0 6.1 73 2.1 N 20 26 11 14 1014.7 1014.7 0.0
22/06:30am 10.8 5.9 5.3 69 2.5 N 20 30 11 16 1014.5 1014.5 0.0
22/06:00am 11.1 6.2 5.2 67 2.7 N 20 28 11 15 1014.4 1014.4 0.0
22/05:30am 11.3 6.4 5.0 65 2.9 N 20 30 11 16 1014.3 1014.3 0.0
22/05:00am 10.7 5.7 4.4 65 2.8 N 20 28 11 15 1014.5 1014.5 0.0
22/04:30am 10.2 5.1 4.1 66 2.7 N 20 28 11 15 1014.7 1014.7 0.0
22/04:00am 10.3 4.8 4.0 65 2.8 N 22 32 12 17 1015.0 1015.0 0.0
22/03:30am 9.9 4.3 3.6 65 2.7 N 22 30 12 16 1015.4 1015.4 0.0
22/03:00am 9.7 4.7 3.4 65 2.7 N 19 26 10 14 1015.5 1015.5 0.0
22/02:30am 10.0 4.4 3.5 64 2.8 N 22 30 12 16 1016.0 1016.0 0.0
22/02:00am 10.1 4.5 3.4 63 2.9 N 22 28 12 15 1016.0 1016.0 0.0
22/01:30am 10.0 4.8 3.3 63 2.9 N 20 32 11 17 1016.5 1016.5 0.0
22/01:00am 10.1 4.9 3.4 63 2.9 N 20 30 11 16 1016.6 1016.6 0.0
22/12:30am 10.1 4.9 3.4 63 2.9 N 20 28 11 15 1016.8 1016.8 0.0
22/12:00am 10.1 4.5 3.6 64 2.8 N 22 28 12 15 1016.9 1016.9 0.0
 
Date/Time
CST
Temp
°C
App
Temp
°C
Dew
Point
°C
Rel
Hum
%
Delta-T
°C
Wind Press
QNH
hPa
Press
MSL
hPa
Rain since
9am
mm
Dir  Spd
km/h
Gust
km/h
Spd
kts
Gust
kts
21/11:30pm 10.1 4.6 3.8 65 2.8 N 22 32 12 17 1017.3 1017.3 0.0
21/11:00pm 9.7 4.8 3.9 67 2.5 NNE 19 24 10 13 1017.3 1017.3 0.0
21/10:30pm 10.0 4.1 4.0 66 2.6 NNE 24 33 13 18 1017.2 1017.2 0.0
21/10:00pm 10.0 5.0 4.4 68 2.5 NNE 20 28 11 15 1017.7 1017.7 0.0
21/09:30pm 9.8 4.4 4.4 69 2.4 NNE 22 30 12 16 1017.9 1017.9 0.0
21/09:00pm 9.8 4.4 4.6 70 2.3 NNE 22 30 12 16 1018.1 1018.1 0.0
21/08:30pm 10.4 5.1 5.0 69 2.4 NNE 22 30 12 16 1017.8 1017.8 0.0

Other Formats:

Comma delimited format used in spreadsheet applications
http://www.bom.gov.au/fwo/IDS60801/IDS60801.95816.axf

JavaScript Object Notation format (JSON) in row-major order
http://www.bom.gov.au/fwo/IDS60801/IDS60801.95816.json